sensor_id;sensor_type;location;lat;lon;timestamp;P1;durP1;ratioP1;P2;durP2;ratioP2
56824;SDS011;42705;50.326;18.772;2023-10-19T00:01:32;57.30;;;29.50;;
56824;SDS011;42705;50.326;18.772;2023-10-19T00:06:56;49.60;;;28.40;;
56824;SDS011;42705;50.326;18.772;2023-10-19T00:12:18;55.30;;;29.00;;
56824;SDS011;42705;50.326;18.772;2023-10-19T00:17:43;61.90;;;29.00;;
56824;SDS011;42705;50.326;18.772;2023-10-19T00:23:07;58.40;;;28.80;;
56824;SDS011;42705;50.326;18.772;2023-10-19T00:28:31;58.70;;;29.70;;
56824;SDS011;42705;50.326;18.772;2023-10-19T00:33:57;55.70;;;28.60;;
56824;SDS011;42705;50.326;18.772;2023-10-19T00:39:22;53.10;;;27.90;;
56824;SDS011;42705;50.326;18.772;2023-10-19T00:44:48;44.30;;;25.60;;
56824;SDS011;42705;50.326;18.772;2023-10-19T00:50:12;51.50;;;25.60;;
56824;SDS011;42705;50.326;18.772;2023-10-19T00:55:38;50.70;;;27.30;;
56824;SDS011;42705;50.326;18.772;2023-10-19T01:01:04;50.10;;;27.40;;
56824;SDS011;42705;50.326;18.772;2023-10-19T01:06:27;51.50;;;27.40;;
56824;SDS011;42705;50.326;18.772;2023-10-19T01:11:53;50.10;;;27.80;;
56824;SDS011;42705;50.326;18.772;2023-10-19T01:17:15;51.70;;;27.80;;
56824;SDS011;42705;50.326;18.772;2023-10-19T01:22:47;50.60;;;27.00;;
56824;SDS011;42705;50.326;18.772;2023-10-19T01:28:12;51.20;;;28.10;;
56824;SDS011;42705;50.326;18.772;2023-10-19T01:33:38;53.10;;;27.60;;
56824;SDS011;42705;50.326;18.772;2023-10-19T01:39:00;51.40;;;28.20;;
56824;SDS011;42705;50.326;18.772;2023-10-19T01:44:22;52.60;;;28.30;;
56824;SDS011;42705;50.326;18.772;2023-10-19T01:49:46;55.10;;;28.50;;
56824;SDS011;42705;50.326;18.772;2023-10-19T01:55:13;49.20;;;25.60;;
56824;SDS011;42705;50.326;18.772;2023-10-19T02:00:40;48.70;;;26.80;;
56824;SDS011;42705;50.326;18.772;2023-10-19T02:06:05;60.00;;;30.00;;
56824;SDS011;42705;50.326;18.772;2023-10-19T02:11:39;53.40;;;28.70;;
56824;SDS011;42705;50.326;18.772;2023-10-19T02:17:03;61.90;;;30.00;;
56824;SDS011;42705;50.326;18.772;2023-10-19T02:22:25;67.90;;;32.60;;
56824;SDS011;42705;50.326;18.772;2023-10-19T02:27:47;62.10;;;31.40;;
56824;SDS011;42705;50.326;18.772;2023-10-19T02:33:10;60.40;;;31.60;;
56824;SDS011;42705;50.326;18.772;2023-10-19T02:38:34;53.60;;;30.10;;
56824;SDS011;42705;50.326;18.772;2023-10-19T02:44:04;58.20;;;29.60;;
56824;SDS011;42705;50.326;18.772;2023-10-19T02:49:40;55.10;;;28.80;;
56824;SDS011;42705;50.326;18.772;2023-10-19T02:55:05;60.00;;;30.60;;
56824;SDS011;42705;50.326;18.772;2023-10-19T03:00:27;53.70;;;28.20;;
56824;SDS011;42705;50.326;18.772;2023-10-19T03:05:54;52.80;;;28.40;;
56824;SDS011;42705;50.326;18.772;2023-10-19T03:11:17;52.20;;;28.60;;
56824;SDS011;42705;50.326;18.772;2023-10-19T03:16:41;54.50;;;28.70;;
56824;SDS011;42705;50.326;18.772;2023-10-19T03:22:03;51.00;;;27.60;;
56824;SDS011;42705;50.326;18.772;2023-10-19T03:27:27;53.30;;;28.00;;
56824;SDS011;42705;50.326;18.772;2023-10-19T03:32:49;51.20;;;27.20;;
56824;SDS011;42705;50.326;18.772;2023-10-19T03:38:12;49.20;;;28.30;;
56824;SDS011;42705;50.326;18.772;2023-10-19T03:43:38;57.30;;;30.80;;
56824;SDS011;42705;50.326;18.772;2023-10-19T03:49:02;52.50;;;28.80;;
56824;SDS011;42705;50.326;18.772;2023-10-19T03:54:32;54.30;;;28.10;;
56824;SDS011;42705;50.326;18.772;2023-10-19T03:59:54;57.30;;;28.10;;
56824;SDS011;42705;50.326;18.772;2023-10-19T04:05:19;49.60;;;27.20;;
56824;SDS011;42705;50.326;18.772;2023-10-19T04:10:44;54.60;;;28.00;;
56824;SDS011;42705;50.326;18.772;2023-10-19T04:16:06;53.40;;;27.70;;
56824;SDS011;42705;50.326;18.772;2023-10-19T04:21:31;50.20;;;26.50;;
56824;SDS011;42705;50.326;18.772;2023-10-19T04:26:53;58.30;;;27.80;;
56824;SDS011;42705;50.326;18.772;2023-10-19T04:32:21;56.10;;;27.90;;
56824;SDS011;42705;50.326;18.772;2023-10-19T04:37:50;49.40;;;26.10;;
56824;SDS011;42705;50.326;18.772;2023-10-19T04:43:13;50.40;;;27.70;;
56824;SDS011;42705;50.326;18.772;2023-10-19T04:48:35;58.10;;;28.90;;
56824;SDS011;42705;50.326;18.772;2023-10-19T04:53:57;55.50;;;28.80;;
56824;SDS011;42705;50.326;18.772;2023-10-19T04:59:19;56.80;;;26.80;;
56824;SDS011;42705;50.326;18.772;2023-10-19T05:04:41;56.50;;;28.70;;
56824;SDS011;42705;50.326;18.772;2023-10-19T05:10:03;49.10;;;25.30;;
56824;SDS011;42705;50.326;18.772;2023-10-19T05:15:26;48.90;;;26.10;;
56824;SDS011;42705;50.326;18.772;2023-10-19T05:20:48;46.00;;;25.30;;
56824;SDS011;42705;50.326;18.772;2023-10-19T05:26:12;54.50;;;27.30;;
56824;SDS011;42705;50.326;18.772;2023-10-19T05:31:36;46.80;;;26.60;;
56824;SDS011;42705;50.326;18.772;2023-10-19T05:37:13;54.70;;;27.40;;
56824;SDS011;42705;50.326;18.772;2023-10-19T05:42:35;55.80;;;27.60;;
56824;SDS011;42705;50.326;18.772;2023-10-19T05:47:57;51.70;;;25.60;;
56824;SDS011;42705;50.326;18.772;2023-10-19T05:53:19;45.20;;;24.70;;
56824;SDS011;42705;50.326;18.772;2023-10-19T05:58:43;42.70;;;23.10;;
56824;SDS011;42705;50.326;18.772;2023-10-19T06:04:06;45.50;;;22.70;;
56824;SDS011;42705;50.326;18.772;2023-10-19T06:09:28;43.30;;;22.80;;
56824;SDS011;42705;50.326;18.772;2023-10-19T06:14:53;40.70;;;22.70;;
56824;SDS011;42705;50.326;18.772;2023-10-19T06:20:15;44.90;;;22.50;;
56824;SDS011;42705;50.326;18.772;2023-10-19T06:25:47;42.10;;;23.30;;
56824;SDS011;42705;50.326;18.772;2023-10-19T06:31:10;43.70;;;22.20;;
56824;SDS011;42705;50.326;18.772;2023-10-19T06:36:32;41.30;;;22.70;;
56824;SDS011;42705;50.326;18.772;2023-10-19T06:41:53;41.10;;;22.90;;
56824;SDS011;42705;50.326;18.772;2023-10-19T06:47:15;52.70;;;22.60;;
56824;SDS011;42705;50.326;18.772;2023-10-19T06:52:38;41.40;;;22.10;;
56824;SDS011;42705;50.326;18.772;2023-10-19T06:58:00;40.00;;;21.40;;
56824;SDS011;42705;50.326;18.772;2023-10-19T07:03:22;35.80;;;21.40;;
56824;SDS011;42705;50.326;18.772;2023-10-19T07:08:45;44.70;;;21.70;;
56824;SDS011;42705;50.326;18.772;2023-10-19T07:14:07;38.10;;;21.10;;
56824;SDS011;42705;50.326;18.772;2023-10-19T07:19:31;39.60;;;21.50;;
56824;SDS011;42705;50.326;18.772;2023-10-19T07:24:53;41.80;;;21.80;;
56824;SDS011;42705;50.326;18.772;2023-10-19T07:30:16;37.90;;;20.40;;
56824;SDS011;42705;50.326;18.772;2023-10-19T07:35:43;36.00;;;20.00;;
56824;SDS011;42705;50.326;18.772;2023-10-19T07:41:08;38.20;;;20.20;;
56824;SDS011;42705;50.326;18.772;2023-10-19T07:46:31;35.90;;;19.80;;
56824;SDS011;42705;50.326;18.772;2023-10-19T07:51:53;39.00;;;19.70;;
56824;SDS011;42705;50.326;18.772;2023-10-19T07:57:14;34.10;;;19.00;;
56824;SDS011;42705;50.326;18.772;2023-10-19T08:02:37;36.70;;;19.90;;
56824;SDS011;42705;50.326;18.772;2023-10-19T08:08:08;36.70;;;18.40;;
56824;SDS011;42705;50.326;18.772;2023-10-19T08:13:32;35.90;;;19.10;;
56824;SDS011;42705;50.326;18.772;2023-10-19T08:18:54;33.70;;;17.80;;
56824;SDS011;42705;50.326;18.772;2023-10-19T08:24:16;35.20;;;19.40;;
56824;SDS011;42705;50.326;18.772;2023-10-19T08:29:39;30.60;;;18.10;;
56824;SDS011;42705;50.326;18.772;2023-10-19T08:35:02;28.00;;;16.70;;
56824;SDS011;42705;50.326;18.772;2023-10-19T08:40:26;34.50;;;18.80;;
56824;SDS011;42705;50.326;18.772;2023-10-19T08:45:49;35.90;;;18.20;;
56824;SDS011;42705;50.326;18.772;2023-10-19T08:51:11;42.70;;;20.10;;
56824;SDS011;42705;50.326;18.772;2023-10-19T08:56:33;36.60;;;19.00;;
56824;SDS011;42705;50.326;18.772;2023-10-19T09:02:01;31.80;;;17.10;;
56824;SDS011;42705;50.326;18.772;2023-10-19T09:07:24;36.00;;;18.00;;
56824;SDS011;42705;50.326;18.772;2023-10-19T09:12:48;38.60;;;19.10;;
56824;SDS011;42705;50.326;18.772;2023-10-19T09:18:22;40.00;;;18.50;;
56824;SDS011;42705;50.326;18.772;2023-10-19T09:23:46;38.70;;;19.60;;
56824;SDS011;42705;50.326;18.772;2023-10-19T09:29:08;36.10;;;18.80;;
56824;SDS011;42705;50.326;18.772;2023-10-19T09:34:40;34.30;;;18.30;;
56824;SDS011;42705;50.326;18.772;2023-10-19T09:40:05;30.40;;;17.10;;
56824;SDS011;42705;50.326;18.772;2023-10-19T09:45:32;29.90;;;17.50;;
56824;SDS011;42705;50.326;18.772;2023-10-19T09:51:02;29.10;;;17.10;;
56824;SDS011;42705;50.326;18.772;2023-10-19T09:56:26;28.50;;;17.30;;
56824;SDS011;42705;50.326;18.772;2023-10-19T10:07:31;32.30;;;18.20;;
56824;SDS011;42705;50.326;18.772;2023-10-19T10:12:52;34.40;;;18.70;;
56824;SDS011;42705;50.326;18.772;2023-10-19T10:18:15;31.40;;;18.60;;
56824;SDS011;42705;50.326;18.772;2023-10-19T10:23:43;26.10;;;17.20;;
56824;SDS011;42705;50.326;18.772;2023-10-19T10:34:42;29.90;;;16.20;;
56824;SDS011;42705;50.326;18.772;2023-10-19T10:40:04;22.00;;;14.40;;
56824;SDS011;42705;50.326;18.772;2023-10-19T10:45:27;28.20;;;16.00;;
56824;SDS011;42705;50.326;18.772;2023-10-19T10:50:49;29.20;;;16.40;;
56824;SDS011;42705;50.326;18.772;2023-10-19T10:56:11;26.20;;;16.00;;
56824;SDS011;42705;50.326;18.772;2023-10-19T11:01:33;27.30;;;16.10;;
56824;SDS011;42705;50.326;18.772;2023-10-19T11:06:55;26.30;;;16.50;;
56824;SDS011;42705;50.326;18.772;2023-10-19T11:12:17;25.80;;;15.60;;
56824;SDS011;42705;50.326;18.772;2023-10-19T11:23:07;28.40;;;16.30;;
56824;SDS011;42705;50.326;18.772;2023-10-19T11:28:29;26.60;;;16.30;;
56824;SDS011;42705;50.326;18.772;2023-10-19T11:33:51;25.20;;;15.70;;
56824;SDS011;42705;50.326;18.772;2023-10-19T11:39:14;28.00;;;16.80;;
56824;SDS011;42705;50.326;18.772;2023-10-19T11:44:37;27.40;;;17.70;;
56824;SDS011;42705;50.326;18.772;2023-10-19T11:49:59;28.50;;;18.40;;
56824;SDS011;42705;50.326;18.772;2023-10-19T11:55:21;32.50;;;19.10;;
56824;SDS011;42705;50.326;18.772;2023-10-19T12:00:44;31.70;;;18.40;;
56824;SDS011;42705;50.326;18.772;2023-10-19T12:06:08;30.40;;;19.70;;
56824;SDS011;42705;50.326;18.772;2023-10-19T12:11:31;28.10;;;18.00;;
56824;SDS011;42705;50.326;18.772;2023-10-19T12:16:53;28.40;;;18.10;;
56824;SDS011;42705;50.326;18.772;2023-10-19T12:22:15;27.00;;;17.90;;
56824;SDS011;42705;50.326;18.772;2023-10-19T12:27:37;39.60;;;22.30;;
56824;SDS011;42705;50.326;18.772;2023-10-19T12:33:00;40.10;;;23.30;;
56824;SDS011;42705;50.326;18.772;2023-10-19T12:38:23;38.00;;;21.60;;
56824;SDS011;42705;50.326;18.772;2023-10-19T12:43:45;38.10;;;22.70;;
56824;SDS011;42705;50.326;18.772;2023-10-19T12:54:35;35.80;;;23.20;;
56824;SDS011;42705;50.326;18.772;2023-10-19T12:59:58;39.30;;;23.10;;
56824;SDS011;42705;50.326;18.772;2023-10-19T13:05:41;38.00;;;23.60;;
56824;SDS011;42705;50.326;18.772;2023-10-19T13:11:04;37.80;;;24.00;;
56824;SDS011;42705;50.326;18.772;2023-10-19T13:16:26;48.40;;;29.40;;
56824;SDS011;42705;50.326;18.772;2023-10-19T13:21:49;48.00;;;28.00;;
56824;SDS011;42705;50.326;18.772;2023-10-19T13:32:33;50.00;;;29.70;;
56824;SDS011;42705;50.326;18.772;2023-10-19T13:37:55;46.60;;;28.60;;
56824;SDS011;42705;50.326;18.772;2023-10-19T13:43:18;56.30;;;31.90;;
56824;SDS011;42705;50.326;18.772;2023-10-19T13:48:41;60.40;;;33.80;;
56824;SDS011;42705;50.326;18.772;2023-10-19T13:59:27;53.70;;;32.30;;
56824;SDS011;42705;50.326;18.772;2023-10-19T14:04:50;48.50;;;32.20;;
56824;SDS011;42705;50.326;18.772;2023-10-19T14:10:13;58.50;;;36.20;;
56824;SDS011;42705;50.326;18.772;2023-10-19T14:15:37;57.50;;;36.10;;
56824;SDS011;42705;50.326;18.772;2023-10-19T14:21:00;55.90;;;34.80;;
56824;SDS011;42705;50.326;18.772;2023-10-19T14:26:22;58.50;;;37.70;;
56824;SDS011;42705;50.326;18.772;2023-10-19T14:31:45;61.90;;;38.00;;
56824;SDS011;42705;50.326;18.772;2023-10-19T14:37:07;61.40;;;38.60;;
56824;SDS011;42705;50.326;18.772;2023-10-19T14:42:30;56.50;;;34.40;;
56824;SDS011;42705;50.326;18.772;2023-10-19T14:47:55;58.40;;;35.50;;
56824;SDS011;42705;50.326;18.772;2023-10-19T14:53:21;55.70;;;36.50;;
56824;SDS011;42705;50.326;18.772;2023-10-19T14:58:43;61.90;;;38.50;;
56824;SDS011;42705;50.326;18.772;2023-10-19T15:04:05;63.90;;;37.00;;
56824;SDS011;42705;50.326;18.772;2023-10-19T15:09:27;60.90;;;37.30;;
56824;SDS011;42705;50.326;18.772;2023-10-19T15:14:50;65.90;;;38.80;;
56824;SDS011;42705;50.326;18.772;2023-10-19T15:25:38;63.30;;;39.00;;
56824;SDS011;42705;50.326;18.772;2023-10-19T15:31:01;74.20;;;44.10;;
56824;SDS011;42705;50.326;18.772;2023-10-19T15:36:23;81.60;;;49.00;;
56824;SDS011;42705;50.326;18.772;2023-10-19T15:41:45;92.30;;;52.60;;
56824;SDS011;42705;50.326;18.772;2023-10-19T15:47:08;90.30;;;50.40;;
56824;SDS011;42705;50.326;18.772;2023-10-19T15:52:37;95.90;;;54.70;;
56824;SDS011;42705;50.326;18.772;2023-10-19T15:58:06;104.50;;;55.20;;
56824;SDS011;42705;50.326;18.772;2023-10-19T16:03:30;104.10;;;58.60;;
56824;SDS011;42705;50.326;18.772;2023-10-19T16:08:52;95.90;;;55.10;;
56824;SDS011;42705;50.326;18.772;2023-10-19T16:14:14;82.90;;;49.90;;
56824;SDS011;42705;50.326;18.772;2023-10-19T16:19:40;85.90;;;50.60;;
56824;SDS011;42705;50.326;18.772;2023-10-19T16:25:03;86.90;;;49.50;;
56824;SDS011;42705;50.326;18.772;2023-10-19T16:30:25;80.80;;;46.30;;
56824;SDS011;42705;50.326;18.772;2023-10-19T16:35:53;74.20;;;43.50;;
56824;SDS011;42705;50.326;18.772;2023-10-19T16:41:15;69.50;;;39.30;;
56824;SDS011;42705;50.326;18.772;2023-10-19T16:46:37;54.10;;;32.80;;
56824;SDS011;42705;50.326;18.772;2023-10-19T16:52:00;45.80;;;29.10;;
56824;SDS011;42705;50.326;18.772;2023-10-19T16:57:23;46.90;;;29.70;;
56824;SDS011;42705;50.326;18.772;2023-10-19T17:02:48;47.90;;;30.30;;
56824;SDS011;42705;50.326;18.772;2023-10-19T17:08:10;48.00;;;28.80;;
56824;SDS011;42705;50.326;18.772;2023-10-19T17:13:32;48.10;;;27.90;;
56824;SDS011;42705;50.326;18.772;2023-10-19T17:18:57;52.90;;;30.50;;
56824;SDS011;42705;50.326;18.772;2023-10-19T17:24:20;61.20;;;35.60;;
56824;SDS011;42705;50.326;18.772;2023-10-19T17:29:42;59.20;;;36.10;;
56824;SDS011;42705;50.326;18.772;2023-10-19T17:35:05;63.20;;;36.00;;
56824;SDS011;42705;50.326;18.772;2023-10-19T17:40:30;71.90;;;38.80;;
56824;SDS011;42705;50.326;18.772;2023-10-19T17:45:52;71.50;;;42.20;;
56824;SDS011;42705;50.326;18.772;2023-10-19T17:51:16;69.40;;;40.00;;
56824;SDS011;42705;50.326;18.772;2023-10-19T17:56:39;69.40;;;40.80;;
56824;SDS011;42705;50.326;18.772;2023-10-19T18:02:02;79.10;;;45.90;;
56824;SDS011;42705;50.326;18.772;2023-10-19T18:07:28;76.60;;;42.30;;
56824;SDS011;42705;50.326;18.772;2023-10-19T18:12:50;77.90;;;44.50;;
56824;SDS011;42705;50.326;18.772;2023-10-19T18:18:13;90.60;;;49.70;;
56824;SDS011;42705;50.326;18.772;2023-10-19T18:23:34;90.90;;;49.80;;
56824;SDS011;42705;50.326;18.772;2023-10-19T18:28:57;92.90;;;51.50;;
56824;SDS011;42705;50.326;18.772;2023-10-19T18:34:20;93.10;;;51.70;;
56824;SDS011;42705;50.326;18.772;2023-10-19T18:39:43;99.00;;;57.10;;
56824;SDS011;42705;50.326;18.772;2023-10-19T18:45:07;99.40;;;59.00;;
56824;SDS011;42705;50.326;18.772;2023-10-19T18:50:30;106.50;;;58.80;;
56824;SDS011;42705;50.326;18.772;2023-10-19T18:55:54;120.40;;;62.70;;
56824;SDS011;42705;50.326;18.772;2023-10-19T19:01:17;116.60;;;64.40;;
56824;SDS011;42705;50.326;18.772;2023-10-19T19:06:39;99.60;;;53.40;;
56824;SDS011;42705;50.326;18.772;2023-10-19T19:12:03;93.90;;;51.90;;
56824;SDS011;42705;50.326;18.772;2023-10-19T19:17:25;92.50;;;52.40;;
56824;SDS011;42705;50.326;18.772;2023-10-19T19:22:47;74.10;;;43.00;;
56824;SDS011;42705;50.326;18.772;2023-10-19T19:28:10;75.90;;;43.60;;
56824;SDS011;42705;50.326;18.772;2023-10-19T19:33:37;72.70;;;42.90;;
56824;SDS011;42705;50.326;18.772;2023-10-19T19:39:00;81.80;;;47.50;;
56824;SDS011;42705;50.326;18.772;2023-10-19T19:44:23;77.00;;;46.10;;
56824;SDS011;42705;50.326;18.772;2023-10-19T19:49:45;80.80;;;46.90;;
56824;SDS011;42705;50.326;18.772;2023-10-19T19:55:08;81.00;;;47.30;;
56824;SDS011;42705;50.326;18.772;2023-10-19T20:00:35;76.90;;;45.90;;
56824;SDS011;42705;50.326;18.772;2023-10-19T20:05:58;85.50;;;51.50;;
56824;SDS011;42705;50.326;18.772;2023-10-19T20:16:43;92.00;;;48.70;;
56824;SDS011;42705;50.326;18.772;2023-10-19T20:22:05;70.60;;;42.40;;
56824;SDS011;42705;50.326;18.772;2023-10-19T20:27:29;70.00;;;42.20;;
56824;SDS011;42705;50.326;18.772;2023-10-19T20:32:51;72.90;;;42.50;;
56824;SDS011;42705;50.326;18.772;2023-10-19T20:43:41;70.90;;;38.30;;
56824;SDS011;42705;50.326;18.772;2023-10-19T20:49:05;69.60;;;40.80;;
56824;SDS011;42705;50.326;18.772;2023-10-19T20:54:27;79.30;;;43.70;;
56824;SDS011;42705;50.326;18.772;2023-10-19T20:59:49;91.50;;;49.30;;
56824;SDS011;42705;50.326;18.772;2023-10-19T21:05:11;88.90;;;48.60;;
56824;SDS011;42705;50.326;18.772;2023-10-19T21:10:36;84.60;;;48.80;;
56824;SDS011;42705;50.326;18.772;2023-10-19T21:15:57;82.00;;;45.40;;
56824;SDS011;42705;50.326;18.772;2023-10-19T21:21:19;80.50;;;45.60;;
56824;SDS011;42705;50.326;18.772;2023-10-19T21:26:41;85.80;;;48.20;;
56824;SDS011;42705;50.326;18.772;2023-10-19T21:32:04;81.10;;;47.50;;
56824;SDS011;42705;50.326;18.772;2023-10-19T21:37:26;82.10;;;46.20;;
56824;SDS011;42705;50.326;18.772;2023-10-19T21:42:48;78.90;;;46.70;;
56824;SDS011;42705;50.326;18.772;2023-10-19T21:48:11;86.80;;;48.90;;
56824;SDS011;42705;50.326;18.772;2023-10-19T21:53:34;78.90;;;44.90;;
56824;SDS011;42705;50.326;18.772;2023-10-19T21:58:56;83.90;;;48.30;;
56824;SDS011;42705;50.326;18.772;2023-10-19T22:04:18;80.40;;;46.70;;
56824;SDS011;42705;50.326;18.772;2023-10-19T22:09:39;77.10;;;46.00;;
56824;SDS011;42705;50.326;18.772;2023-10-19T22:15:02;85.20;;;49.10;;
56824;SDS011;42705;50.326;18.772;2023-10-19T22:20:25;89.50;;;51.50;;
56824;SDS011;42705;50.326;18.772;2023-10-19T22:25:46;83.80;;;48.80;;
56824;SDS011;42705;50.326;18.772;2023-10-19T22:31:08;77.80;;;47.00;;
56824;SDS011;42705;50.326;18.772;2023-10-19T22:36:33;79.00;;;48.20;;
56824;SDS011;42705;50.326;18.772;2023-10-19T22:41:54;78.10;;;45.90;;
56824;SDS011;42705;50.326;18.772;2023-10-19T22:47:19;81.70;;;46.50;;
56824;SDS011;42705;50.326;18.772;2023-10-19T22:52:41;75.00;;;46.00;;
56824;SDS011;42705;50.326;18.772;2023-10-19T22:58:03;72.50;;;42.30;;
56824;SDS011;42705;50.326;18.772;2023-10-19T23:03:25;70.60;;;42.10;;
56824;SDS011;42705;50.326;18.772;2023-10-19T23:08:47;67.50;;;42.00;;
56824;SDS011;42705;50.326;18.772;2023-10-19T23:14:09;69.90;;;41.80;;
56824;SDS011;42705;50.326;18.772;2023-10-19T23:19:33;66.20;;;38.60;;
56824;SDS011;42705;50.326;18.772;2023-10-19T23:24:59;61.60;;;40.20;;
56824;SDS011;42705;50.326;18.772;2023-10-19T23:30:22;67.90;;;41.60;;
56824;SDS011;42705;50.326;18.772;2023-10-19T23:35:45;62.10;;;37.10;;
56824;SDS011;42705;50.326;18.772;2023-10-19T23:41:06;61.40;;;38.30;;
56824;SDS011;42705;50.326;18.772;2023-10-19T23:46:28;59.70;;;39.10;;
56824;SDS011;42705;50.326;18.772;2023-10-19T23:51:51;61.80;;;38.20;;
56824;SDS011;42705;50.326;18.772;2023-10-19T23:57:13;66.50;;;39.60;;
